sensor_id;sensor_type;location;lat;lon;timestamp;P1;durP1;ratioP1;P2;durP2;ratioP2
17886;SDS011;9069;52.044;7.472;2023-02-11T00:01:05;47.55;;;21.92;;
17886;SDS011;9069;52.044;7.472;2023-02-11T00:03:36;44.72;;;20.55;;
17886;SDS011;9069;52.044;7.472;2023-02-11T00:06:04;43.78;;;21.08;;
17886;SDS011;9069;52.044;7.472;2023-02-11T00:08:34;40.30;;;21.20;;
17886;SDS011;9069;52.044;7.472;2023-02-11T00:11:01;42.90;;;21.90;;
17886;SDS011;9069;52.044;7.472;2023-02-11T00:13:28;42.92;;;20.83;;
17886;SDS011;9069;52.044;7.472;2023-02-11T00:15:55;37.40;;;19.08;;
17886;SDS011;9069;52.044;7.472;2023-02-11T00:18:22;39.80;;;19.33;;
17886;SDS011;9069;52.044;7.472;2023-02-11T00:20:49;47.70;;;20.35;;
17886;SDS011;9069;52.044;7.472;2023-02-11T00:23:16;43.95;;;20.35;;
17886;SDS011;9069;52.044;7.472;2023-02-11T00:25:43;43.42;;;20.63;;
17886;SDS011;9069;52.044;7.472;2023-02-11T00:28:11;38.67;;;19.23;;
17886;SDS011;9069;52.044;7.472;2023-02-11T00:30:39;40.78;;;19.48;;
17886;SDS011;9069;52.044;7.472;2023-02-11T00:33:06;36.20;;;19.02;;
17886;SDS011;9069;52.044;7.472;2023-02-11T00:35:35;42.03;;;19.17;;
17886;SDS011;9069;52.044;7.472;2023-02-11T00:38:02;40.63;;;19.88;;
17886;SDS011;9069;52.044;7.472;2023-02-11T00:40:29;42.20;;;18.70;;
17886;SDS011;9069;52.044;7.472;2023-02-11T00:42:56;34.03;;;17.42;;
17886;SDS011;9069;52.044;7.472;2023-02-11T00:45:23;41.10;;;20.25;;
17886;SDS011;9069;52.044;7.472;2023-02-11T00:47:50;38.05;;;18.55;;
17886;SDS011;9069;52.044;7.472;2023-02-11T00:50:16;42.75;;;18.38;;
17886;SDS011;9069;52.044;7.472;2023-02-11T00:52:43;40.53;;;18.85;;
17886;SDS011;9069;52.044;7.472;2023-02-11T00:55:10;40.95;;;19.60;;
17886;SDS011;9069;52.044;7.472;2023-02-11T00:57:37;39.92;;;18.98;;
17886;SDS011;9069;52.044;7.472;2023-02-11T01:00:04;40.08;;;19.35;;
17886;SDS011;9069;52.044;7.472;2023-02-11T01:02:32;37.22;;;17.60;;
17886;SDS011;9069;52.044;7.472;2023-02-11T01:04:58;42.17;;;19.00;;
17886;SDS011;9069;52.044;7.472;2023-02-11T01:07:26;38.33;;;18.85;;
17886;SDS011;9069;52.044;7.472;2023-02-11T01:09:53;39.75;;;17.70;;
17886;SDS011;9069;52.044;7.472;2023-02-11T01:12:20;36.22;;;16.88;;
17886;SDS011;9069;52.044;7.472;2023-02-11T01:14:47;38.65;;;17.27;;
17886;SDS011;9069;52.044;7.472;2023-02-11T01:17:16;34.40;;;17.27;;
17886;SDS011;9069;52.044;7.472;2023-02-11T01:19:43;40.58;;;17.70;;
17886;SDS011;9069;52.044;7.472;2023-02-11T01:22:10;31.38;;;16.05;;
17886;SDS011;9069;52.044;7.472;2023-02-11T01:24:37;35.97;;;16.77;;
17886;SDS011;9069;52.044;7.472;2023-02-11T01:27:05;35.30;;;16.35;;
17886;SDS011;9069;52.044;7.472;2023-02-11T01:29:32;37.72;;;17.42;;
17886;SDS011;9069;52.044;7.472;2023-02-11T01:31:59;31.88;;;15.80;;
17886;SDS011;9069;52.044;7.472;2023-02-11T01:34:26;34.60;;;15.98;;
17886;SDS011;9069;52.044;7.472;2023-02-11T01:36:57;33.97;;;15.77;;
17886;SDS011;9069;52.044;7.472;2023-02-11T01:39:27;35.70;;;16.88;;
17886;SDS011;9069;52.044;7.472;2023-02-11T01:41:53;34.58;;;16.27;;
17886;SDS011;9069;52.044;7.472;2023-02-11T01:46:53;35.83;;;16.20;;
17886;SDS011;9069;52.044;7.472;2023-02-11T01:49:22;30.17;;;15.02;;
17886;SDS011;9069;52.044;7.472;2023-02-11T01:52:08;32.72;;;15.40;;
17886;SDS011;9069;52.044;7.472;2023-02-11T01:54:49;28.42;;;14.05;;
17886;SDS011;9069;52.044;7.472;2023-02-11T01:57:49;34.80;;;15.65;;
17886;SDS011;9069;52.044;7.472;2023-02-11T02:00:19;25.20;;;14.82;;
17886;SDS011;9069;52.044;7.472;2023-02-11T02:03:10;27.30;;;14.07;;
17886;SDS011;9069;52.044;7.472;2023-02-11T02:08:30;32.03;;;13.73;;
17886;SDS011;9069;52.044;7.472;2023-02-11T02:11:15;32.28;;;14.80;;
17886;SDS011;9069;52.044;7.472;2023-02-11T02:13:42;28.65;;;14.50;;
17886;SDS011;9069;52.044;7.472;2023-02-11T02:16:13;34.30;;;13.95;;
17886;SDS011;9069;52.044;7.472;2023-02-11T02:38:58;28.38;;;14.23;;
17886;SDS011;9069;52.044;7.472;2023-02-11T02:41:33;29.95;;;12.77;;
17886;SDS011;9069;52.044;7.472;2023-02-11T02:44:02;26.48;;;12.73;;
17886;SDS011;9069;52.044;7.472;2023-02-11T02:46:31;31.40;;;12.77;;
17886;SDS011;9069;52.044;7.472;2023-02-11T02:48:59;31.70;;;13.55;;
17886;SDS011;9069;52.044;7.472;2023-02-11T03:08:05;22.00;;;11.85;;
17886;SDS011;9069;52.044;7.472;2023-02-11T03:10:54;30.88;;;12.25;;
17886;SDS011;9069;52.044;7.472;2023-02-11T03:13:25;26.63;;;12.82;;
17886;SDS011;9069;52.044;7.472;2023-02-11T03:15:55;29.88;;;13.13;;
17886;SDS011;9069;52.044;7.472;2023-02-11T03:18:25;26.23;;;13.02;;
17886;SDS011;9069;52.044;7.472;2023-02-11T03:20:54;31.15;;;12.15;;
17886;SDS011;9069;52.044;7.472;2023-02-11T03:23:25;30.30;;;13.48;;
17886;SDS011;9069;52.044;7.472;2023-02-11T03:26:02;28.30;;;13.50;;
17886;SDS011;9069;52.044;7.472;2023-02-11T03:28:48;23.17;;;12.05;;
17886;SDS011;9069;52.044;7.472;2023-02-11T03:34:06;20.15;;;11.05;;
17886;SDS011;9069;52.044;7.472;2023-02-11T03:36:39;19.58;;;11.02;;
17886;SDS011;9069;52.044;7.472;2023-02-11T03:39:21;19.42;;;11.00;;
17886;SDS011;9069;52.044;7.472;2023-02-11T03:41:52;24.05;;;11.32;;
17886;SDS011;9069;52.044;7.472;2023-02-11T03:44:21;24.85;;;11.07;;
17886;SDS011;9069;52.044;7.472;2023-02-11T03:46:51;22.15;;;11.05;;
17886;SDS011;9069;52.044;7.472;2023-02-11T03:49:20;24.80;;;12.38;;
17886;SDS011;9069;52.044;7.472;2023-02-11T03:51:50;21.67;;;10.90;;
17886;SDS011;9069;52.044;7.472;2023-02-11T03:54:20;25.10;;;11.20;;
17886;SDS011;9069;52.044;7.472;2023-02-11T03:56:52;25.20;;;11.50;;
17886;SDS011;9069;52.044;7.472;2023-02-11T03:59:23;25.70;;;10.95;;
17886;SDS011;9069;52.044;7.472;2023-02-11T04:01:50;27.15;;;11.98;;
17886;SDS011;9069;52.044;7.472;2023-02-11T04:04:16;32.78;;;11.95;;
17886;SDS011;9069;52.044;7.472;2023-02-11T04:06:44;26.83;;;11.60;;
17886;SDS011;9069;52.044;7.472;2023-02-11T04:09:10;25.27;;;11.27;;
17886;SDS011;9069;52.044;7.472;2023-02-11T04:11:37;27.90;;;11.85;;
17886;SDS011;9069;52.044;7.472;2023-02-11T04:14:04;27.27;;;11.77;;
17886;SDS011;9069;52.044;7.472;2023-02-11T04:16:30;22.98;;;11.65;;
17886;SDS011;9069;52.044;7.472;2023-02-11T04:18:57;24.80;;;11.25;;
17886;SDS011;9069;52.044;7.472;2023-02-11T04:21:24;23.77;;;11.20;;
17886;SDS011;9069;52.044;7.472;2023-02-11T04:23:51;33.65;;;12.48;;
17886;SDS011;9069;52.044;7.472;2023-02-11T04:26:17;19.83;;;10.93;;
17886;SDS011;9069;52.044;7.472;2023-02-11T04:28:44;23.27;;;11.38;;
17886;SDS011;9069;52.044;7.472;2023-02-11T04:31:11;24.40;;;11.20;;
17886;SDS011;9069;52.044;7.472;2023-02-11T04:33:38;23.33;;;11.48;;
17886;SDS011;9069;52.044;7.472;2023-02-11T04:36:04;25.25;;;11.65;;
17886;SDS011;9069;52.044;7.472;2023-02-11T04:38:31;26.60;;;10.65;;
17886;SDS011;9069;52.044;7.472;2023-02-11T04:40:58;28.15;;;12.27;;
17886;SDS011;9069;52.044;7.472;2023-02-11T04:43:25;22.27;;;10.25;;
17886;SDS011;9069;52.044;7.472;2023-02-11T04:45:55;22.88;;;11.30;;
17886;SDS011;9069;52.044;7.472;2023-02-11T04:48:24;23.05;;;11.07;;
17886;SDS011;9069;52.044;7.472;2023-02-11T04:50:50;33.15;;;12.10;;
17886;SDS011;9069;52.044;7.472;2023-02-11T04:53:17;24.00;;;11.48;;
17886;SDS011;9069;52.044;7.472;2023-02-11T04:55:44;29.40;;;11.43;;
17886;SDS011;9069;52.044;7.472;2023-02-11T04:58:15;24.48;;;11.45;;
17886;SDS011;9069;52.044;7.472;2023-02-11T05:00:43;27.90;;;11.32;;
17886;SDS011;9069;52.044;7.472;2023-02-11T05:03:10;25.25;;;10.68;;
17886;SDS011;9069;52.044;7.472;2023-02-11T05:05:38;21.92;;;10.65;;
17886;SDS011;9069;52.044;7.472;2023-02-11T05:08:06;24.73;;;11.20;;
17886;SDS011;9069;52.044;7.472;2023-02-11T05:10:33;22.38;;;10.82;;
17886;SDS011;9069;52.044;7.472;2023-02-11T05:13:00;28.10;;;10.85;;
17886;SDS011;9069;52.044;7.472;2023-02-11T05:15:27;21.33;;;10.43;;
17886;SDS011;9069;52.044;7.472;2023-02-11T05:17:54;22.88;;;10.73;;
17886;SDS011;9069;52.044;7.472;2023-02-11T05:20:21;26.02;;;11.43;;
17886;SDS011;9069;52.044;7.472;2023-02-11T05:22:48;24.95;;;11.20;;
17886;SDS011;9069;52.044;7.472;2023-02-11T05:25:14;24.65;;;11.30;;
17886;SDS011;9069;52.044;7.472;2023-02-11T05:27:41;24.63;;;11.07;;
17886;SDS011;9069;52.044;7.472;2023-02-11T05:30:09;20.10;;;10.30;;
17886;SDS011;9069;52.044;7.472;2023-02-11T05:32:36;26.73;;;11.43;;
17886;SDS011;9069;52.044;7.472;2023-02-11T05:35:03;22.65;;;11.63;;
17886;SDS011;9069;52.044;7.472;2023-02-11T05:37:29;22.15;;;10.82;;
17886;SDS011;9069;52.044;7.472;2023-02-11T05:39:56;25.17;;;12.40;;
17886;SDS011;9069;52.044;7.472;2023-02-11T05:42:23;23.88;;;11.43;;
17886;SDS011;9069;52.044;7.472;2023-02-11T05:44:49;25.50;;;11.85;;
17886;SDS011;9069;52.044;7.472;2023-02-11T05:47:16;28.70;;;11.02;;
17886;SDS011;9069;52.044;7.472;2023-02-11T05:49:43;23.23;;;11.27;;
17886;SDS011;9069;52.044;7.472;2023-02-11T05:52:09;25.50;;;11.05;;
17886;SDS011;9069;52.044;7.472;2023-02-11T05:54:36;30.85;;;11.88;;
17886;SDS011;9069;52.044;7.472;2023-02-11T05:57:03;27.00;;;11.55;;
17886;SDS011;9069;52.044;7.472;2023-02-11T05:59:30;27.13;;;11.82;;
17886;SDS011;9069;52.044;7.472;2023-02-11T06:01:57;24.17;;;11.77;;
17886;SDS011;9069;52.044;7.472;2023-02-11T06:04:23;29.35;;;12.35;;
17886;SDS011;9069;52.044;7.472;2023-02-11T06:06:50;24.58;;;12.07;;
17886;SDS011;9069;52.044;7.472;2023-02-11T06:09:16;25.50;;;12.52;;
17886;SDS011;9069;52.044;7.472;2023-02-11T06:11:43;24.15;;;12.18;;
17886;SDS011;9069;52.044;7.472;2023-02-11T06:14:10;23.35;;;11.55;;
17886;SDS011;9069;52.044;7.472;2023-02-11T06:16:36;30.02;;;12.07;;
17886;SDS011;9069;52.044;7.472;2023-02-11T06:19:03;22.10;;;11.85;;
17886;SDS011;9069;52.044;7.472;2023-02-11T06:21:30;31.10;;;12.63;;
17886;SDS011;9069;52.044;7.472;2023-02-11T06:24:09;28.25;;;12.32;;
17886;SDS011;9069;52.044;7.472;2023-02-11T06:26:36;25.80;;;13.85;;
17886;SDS011;9069;52.044;7.472;2023-02-11T06:29:02;28.70;;;12.95;;
17886;SDS011;9069;52.044;7.472;2023-02-11T06:31:29;29.55;;;13.32;;
17886;SDS011;9069;52.044;7.472;2023-02-11T06:33:56;28.83;;;14.15;;
17886;SDS011;9069;52.044;7.472;2023-02-11T06:36:24;29.55;;;14.07;;
17886;SDS011;9069;52.044;7.472;2023-02-11T06:38:50;30.92;;;14.07;;
17886;SDS011;9069;52.044;7.472;2023-02-11T06:41:17;34.33;;;14.57;;
17886;SDS011;9069;52.044;7.472;2023-02-11T06:43:54;32.65;;;14.15;;
17886;SDS011;9069;52.044;7.472;2023-02-11T06:46:21;31.65;;;13.52;;
17886;SDS011;9069;52.044;7.472;2023-02-11T06:48:48;27.75;;;13.95;;
17886;SDS011;9069;52.044;7.472;2023-02-11T06:51:15;33.47;;;14.75;;
17886;SDS011;9069;52.044;7.472;2023-02-11T06:53:43;27.48;;;13.68;;
17886;SDS011;9069;52.044;7.472;2023-02-11T06:56:13;26.45;;;13.75;;
17886;SDS011;9069;52.044;7.472;2023-02-11T06:58:44;34.03;;;15.43;;
17886;SDS011;9069;52.044;7.472;2023-02-11T07:01:13;32.25;;;14.90;;
17886;SDS011;9069;52.044;7.472;2023-02-11T07:03:41;35.58;;;14.60;;
17886;SDS011;9069;52.044;7.472;2023-02-11T07:06:12;37.55;;;14.90;;
17886;SDS011;9069;52.044;7.472;2023-02-11T07:08:41;31.20;;;15.38;;
17886;SDS011;9069;52.044;7.472;2023-02-11T07:11:16;33.97;;;15.63;;
17886;SDS011;9069;52.044;7.472;2023-02-11T07:13:46;38.97;;;17.00;;
17886;SDS011;9069;52.044;7.472;2023-02-11T07:16:14;37.40;;;15.32;;
17886;SDS011;9069;52.044;7.472;2023-02-11T07:18:42;33.38;;;15.10;;
17886;SDS011;9069;52.044;7.472;2023-02-11T07:21:10;32.65;;;14.77;;
17886;SDS011;9069;52.044;7.472;2023-02-11T07:23:38;34.35;;;15.68;;
17886;SDS011;9069;52.044;7.472;2023-02-11T07:26:07;34.50;;;15.32;;
17886;SDS011;9069;52.044;7.472;2023-02-11T07:28:36;29.67;;;14.85;;
17886;SDS011;9069;52.044;7.472;2023-02-11T07:31:07;32.20;;;15.65;;
17886;SDS011;9069;52.044;7.472;2023-02-11T07:33:36;35.42;;;15.73;;
17886;SDS011;9069;52.044;7.472;2023-02-11T07:36:04;35.65;;;16.00;;
17886;SDS011;9069;52.044;7.472;2023-02-11T07:38:32;29.90;;;15.63;;
17886;SDS011;9069;52.044;7.472;2023-02-11T07:41:04;33.88;;;15.30;;
17886;SDS011;9069;52.044;7.472;2023-02-11T07:43:32;38.92;;;16.20;;
17886;SDS011;9069;52.044;7.472;2023-02-11T07:46:03;44.25;;;17.00;;
17886;SDS011;9069;52.044;7.472;2023-02-11T07:48:32;32.30;;;16.33;;
17886;SDS011;9069;52.044;7.472;2023-02-11T07:51:19;35.17;;;16.75;;
17886;SDS011;9069;52.044;7.472;2023-02-11T07:53:48;41.33;;;16.25;;
17886;SDS011;9069;52.044;7.472;2023-02-11T07:56:16;36.88;;;15.73;;
17886;SDS011;9069;52.044;7.472;2023-02-11T07:58:43;46.10;;;16.10;;
17886;SDS011;9069;52.044;7.472;2023-02-11T08:01:12;37.30;;;16.27;;
17886;SDS011;9069;52.044;7.472;2023-02-11T08:03:41;33.10;;;15.35;;
17886;SDS011;9069;52.044;7.472;2023-02-11T08:06:12;40.70;;;16.23;;
17886;SDS011;9069;52.044;7.472;2023-02-11T08:08:41;32.80;;;15.90;;
17886;SDS011;9069;52.044;7.472;2023-02-11T08:11:09;38.70;;;17.30;;
17886;SDS011;9069;52.044;7.472;2023-02-11T08:13:41;41.70;;;16.80;;
17886;SDS011;9069;52.044;7.472;2023-02-11T08:16:09;38.15;;;16.02;;
17886;SDS011;9069;52.044;7.472;2023-02-11T08:19:03;34.28;;;16.55;;
17886;SDS011;9069;52.044;7.472;2023-02-11T08:21:31;37.63;;;16.88;;
17886;SDS011;9069;52.044;7.472;2023-02-11T08:23:59;33.50;;;16.40;;
17886;SDS011;9069;52.044;7.472;2023-02-11T08:26:28;35.40;;;16.73;;
17886;SDS011;9069;52.044;7.472;2023-02-11T08:28:57;47.75;;;18.42;;
17886;SDS011;9069;52.044;7.472;2023-02-11T08:31:25;49.95;;;18.65;;
17886;SDS011;9069;52.044;7.472;2023-02-11T08:33:56;36.67;;;17.35;;
17886;SDS011;9069;52.044;7.472;2023-02-11T08:36:28;45.03;;;17.90;;
17886;SDS011;9069;52.044;7.472;2023-02-11T08:38:56;43.50;;;16.55;;
17886;SDS011;9069;52.044;7.472;2023-02-11T08:41:43;33.30;;;16.38;;
17886;SDS011;9069;52.044;7.472;2023-02-11T08:44:10;38.88;;;16.63;;
17886;SDS011;9069;52.044;7.472;2023-02-11T08:46:37;39.00;;;17.20;;
17886;SDS011;9069;52.044;7.472;2023-02-11T08:49:04;40.47;;;17.98;;
17886;SDS011;9069;52.044;7.472;2023-02-11T08:51:31;40.30;;;18.55;;
17886;SDS011;9069;52.044;7.472;2023-02-11T08:53:58;31.60;;;17.02;;
17886;SDS011;9069;52.044;7.472;2023-02-11T08:56:26;40.70;;;19.02;;
17886;SDS011;9069;52.044;7.472;2023-02-11T08:58:53;43.55;;;17.33;;
17886;SDS011;9069;52.044;7.472;2023-02-11T09:01:21;40.20;;;16.88;;
17886;SDS011;9069;52.044;7.472;2023-02-11T09:03:53;37.55;;;16.60;;
17886;SDS011;9069;52.044;7.472;2023-02-11T09:06:20;32.45;;;16.35;;
17886;SDS011;9069;52.044;7.472;2023-02-11T09:08:49;36.30;;;17.45;;
17886;SDS011;9069;52.044;7.472;2023-02-11T09:11:17;44.58;;;18.48;;
17886;SDS011;9069;52.044;7.472;2023-02-11T09:13:46;40.42;;;18.50;;
17886;SDS011;9069;52.044;7.472;2023-02-11T09:16:17;41.17;;;17.60;;
17886;SDS011;9069;52.044;7.472;2023-02-11T09:18:49;36.33;;;16.80;;
17886;SDS011;9069;52.044;7.472;2023-02-11T09:21:16;39.70;;;18.42;;
17886;SDS011;9069;52.044;7.472;2023-02-11T09:23:44;35.50;;;16.58;;
17886;SDS011;9069;52.044;7.472;2023-02-11T09:26:16;44.83;;;18.77;;
17886;SDS011;9069;52.044;7.472;2023-02-11T09:28:45;45.35;;;17.20;;
17886;SDS011;9069;52.044;7.472;2023-02-11T09:31:14;41.67;;;18.15;;
17886;SDS011;9069;52.044;7.472;2023-02-11T09:33:43;40.72;;;18.40;;
17886;SDS011;9069;52.044;7.472;2023-02-11T09:36:15;41.42;;;20.25;;
17886;SDS011;9069;52.044;7.472;2023-02-11T09:38:44;40.97;;;17.98;;
17886;SDS011;9069;52.044;7.472;2023-02-11T09:41:58;36.47;;;17.77;;
17886;SDS011;9069;52.044;7.472;2023-02-11T09:44:22;43.03;;;20.05;;
17886;SDS011;9069;52.044;7.472;2023-02-11T09:46:54;36.85;;;17.95;;
17886;SDS011;9069;52.044;7.472;2023-02-11T09:49:28;42.88;;;19.13;;
17886;SDS011;9069;52.044;7.472;2023-02-11T09:52:05;39.20;;;19.08;;
17886;SDS011;9069;52.044;7.472;2023-02-11T09:54:54;42.28;;;19.00;;
17886;SDS011;9069;52.044;7.472;2023-02-11T09:57:34;40.67;;;19.63;;
17886;SDS011;9069;52.044;7.472;2023-02-11T10:00:15;41.42;;;19.23;;
17886;SDS011;9069;52.044;7.472;2023-02-11T10:05:32;38.15;;;17.67;;
17886;SDS011;9069;52.044;7.472;2023-02-11T10:08:13;38.78;;;17.80;;
17886;SDS011;9069;52.044;7.472;2023-02-11T10:10:51;40.05;;;17.90;;
17886;SDS011;9069;52.044;7.472;2023-02-11T10:19:07;32.50;;;16.63;;
17886;SDS011;9069;52.044;7.472;2023-02-11T10:24:47;42.97;;;18.38;;
17886;SDS011;9069;52.044;7.472;2023-02-11T10:27:20;49.13;;;18.83;;
17886;SDS011;9069;52.044;7.472;2023-02-11T10:29:56;39.30;;;17.75;;
17886;SDS011;9069;52.044;7.472;2023-02-11T10:32:37;35.88;;;18.17;;
17886;SDS011;9069;52.044;7.472;2023-02-11T10:35:15;41.78;;;18.35;;
17886;SDS011;9069;52.044;7.472;2023-02-11T10:37:46;39.60;;;19.05;;
17886;SDS011;9069;52.044;7.472;2023-02-11T10:40:24;39.75;;;19.67;;
17886;SDS011;9069;52.044;7.472;2023-02-11T10:42:56;40.88;;;19.13;;
17886;SDS011;9069;52.044;7.472;2023-02-11T10:45:27;40.30;;;17.98;;
17886;SDS011;9069;52.044;7.472;2023-02-11T10:47:58;40.67;;;18.42;;
17886;SDS011;9069;52.044;7.472;2023-02-11T10:50:27;42.33;;;19.77;;
17886;SDS011;9069;52.044;7.472;2023-02-11T10:53:10;43.58;;;20.17;;
17886;SDS011;9069;52.044;7.472;2023-02-11T10:55:49;46.22;;;19.08;;
17886;SDS011;9069;52.044;7.472;2023-02-11T10:59:02;42.22;;;18.65;;
17886;SDS011;9069;52.044;7.472;2023-02-11T11:01:18;44.35;;;17.98;;
17886;SDS011;9069;52.044;7.472;2023-02-11T11:03:51;42.42;;;19.05;;
17886;SDS011;9069;52.044;7.472;2023-02-11T11:06:30;40.22;;;18.95;;
17886;SDS011;9069;52.044;7.472;2023-02-11T11:08:58;49.60;;;21.00;;
17886;SDS011;9069;52.044;7.472;2023-02-11T11:11:26;47.75;;;19.63;;
17886;SDS011;9069;52.044;7.472;2023-02-11T11:24:17;48.58;;;20.25;;
17886;SDS011;9069;52.044;7.472;2023-02-11T11:26:46;42.67;;;19.50;;
17886;SDS011;9069;52.044;7.472;2023-02-11T11:29:23;42.67;;;19.25;;
17886;SDS011;9069;52.044;7.472;2023-02-11T11:31:54;38.85;;;19.40;;
17886;SDS011;9069;52.044;7.472;2023-02-11T11:34:33;40.92;;;20.25;;
17886;SDS011;9069;52.044;7.472;2023-02-11T11:39:37;46.63;;;21.15;;
17886;SDS011;9069;52.044;7.472;2023-02-11T11:42:21;41.67;;;19.63;;
17886;SDS011;9069;52.044;7.472;2023-02-11T11:47:38;37.33;;;16.55;;
17886;SDS011;9069;52.044;7.472;2023-02-11T11:50:36;47.88;;;19.50;;
17886;SDS011;9069;52.044;7.472;2023-02-11T11:53:19;42.72;;;19.17;;
17886;SDS011;9069;52.044;7.472;2023-02-11T11:56:13;39.83;;;17.73;;
17886;SDS011;9069;52.044;7.472;2023-02-11T11:58:46;41.90;;;19.05;;
17886;SDS011;9069;52.044;7.472;2023-02-11T12:01:36;41.78;;;18.48;;
17886;SDS011;9069;52.044;7.472;2023-02-11T12:07:29;41.10;;;17.70;;
17886;SDS011;9069;52.044;7.472;2023-02-11T12:10:09;37.22;;;18.27;;
17886;SDS011;9069;52.044;7.472;2023-02-11T12:18:25;44.83;;;19.98;;
17886;SDS011;9069;52.044;7.472;2023-02-11T12:23:57;39.70;;;19.63;;
17886;SDS011;9069;52.044;7.472;2023-02-11T12:31:50;38.83;;;18.83;;
17886;SDS011;9069;52.044;7.472;2023-02-11T12:34:44;41.90;;;20.35;;
17886;SDS011;9069;52.044;7.472;2023-02-11T12:40:25;40.13;;;20.05;;
17886;SDS011;9069;52.044;7.472;2023-02-11T12:43:24;43.30;;;21.90;;
17886;SDS011;9069;52.044;7.472;2023-02-11T12:48:38;37.40;;;18.48;;
17886;SDS011;9069;52.044;7.472;2023-02-11T12:54:05;33.17;;;17.60;;
17886;SDS011;9069;52.044;7.472;2023-02-11T12:56:47;37.97;;;18.75;;
17886;SDS011;9069;52.044;7.472;2023-02-11T13:01:54;31.67;;;16.60;;
17886;SDS011;9069;52.044;7.472;2023-02-11T13:04:25;40.95;;;17.67;;
17886;SDS011;9069;52.044;7.472;2023-02-11T13:06:59;40.75;;;20.10;;
17886;SDS011;9069;52.044;7.472;2023-02-11T13:09:33;40.55;;;18.00;;
17886;SDS011;9069;52.044;7.472;2023-02-11T13:12:08;34.90;;;19.33;;
17886;SDS011;9069;52.044;7.472;2023-02-11T13:14:58;31.83;;;17.70;;
17886;SDS011;9069;52.044;7.472;2023-02-11T13:17:36;38.65;;;18.67;;
17886;SDS011;9069;52.044;7.472;2023-02-11T13:20:19;33.92;;;17.42;;
17886;SDS011;9069;52.044;7.472;2023-02-11T13:22:55;32.33;;;17.25;;
17886;SDS011;9069;52.044;7.472;2023-02-11T13:25:35;31.52;;;16.98;;
17886;SDS011;9069;52.044;7.472;2023-02-11T13:30:59;33.00;;;15.57;;
17886;SDS011;9069;52.044;7.472;2023-02-11T13:33:31;25.63;;;14.77;;
17886;SDS011;9069;52.044;7.472;2023-02-11T13:38:30;30.58;;;15.30;;
17886;SDS011;9069;52.044;7.472;2023-02-11T13:41:02;32.63;;;15.93;;
17886;SDS011;9069;52.044;7.472;2023-02-11T13:43:34;25.23;;;14.27;;
17886;SDS011;9069;52.044;7.472;2023-02-11T13:46:03;31.23;;;14.68;;
17886;SDS011;9069;52.044;7.472;2023-02-11T13:48:36;27.77;;;14.27;;
17886;SDS011;9069;52.044;7.472;2023-02-11T13:51:11;23.23;;;13.98;;
17886;SDS011;9069;52.044;7.472;2023-02-11T13:56:22;27.25;;;14.85;;
17886;SDS011;9069;52.044;7.472;2023-02-11T13:58:56;30.23;;;14.55;;
17886;SDS011;9069;52.044;7.472;2023-02-11T14:04:33;29.88;;;14.45;;
17886;SDS011;9069;52.044;7.472;2023-02-11T14:07:31;26.35;;;13.80;;
17886;SDS011;9069;52.044;7.472;2023-02-11T14:13:22;30.10;;;14.98;;
17886;SDS011;9069;52.044;7.472;2023-02-11T14:16:02;24.42;;;13.32;;
17886;SDS011;9069;52.044;7.472;2023-02-11T14:21:23;27.67;;;14.63;;
17886;SDS011;9069;52.044;7.472;2023-02-11T14:26:30;26.75;;;14.50;;
17886;SDS011;9069;52.044;7.472;2023-02-11T14:31:59;24.50;;;13.77;;
17886;SDS011;9069;52.044;7.472;2023-02-11T14:40:28;27.05;;;13.77;;
17886;SDS011;9069;52.044;7.472;2023-02-11T14:43:17;31.63;;;17.13;;
17886;SDS011;9069;52.044;7.472;2023-02-11T14:45:52;24.90;;;13.77;;
17886;SDS011;9069;52.044;7.472;2023-02-11T14:48:28;27.25;;;13.65;;
17886;SDS011;9069;52.044;7.472;2023-02-11T14:51:10;24.50;;;14.32;;
17886;SDS011;9069;52.044;7.472;2023-02-11T14:53:49;24.60;;;13.15;;
17886;SDS011;9069;52.044;7.472;2023-02-11T14:56:20;22.58;;;12.23;;
17886;SDS011;9069;52.044;7.472;2023-02-11T14:58:53;21.73;;;12.63;;
17886;SDS011;9069;52.044;7.472;2023-02-11T15:04:04;21.30;;;11.02;;
17886;SDS011;9069;52.044;7.472;2023-02-11T15:06:46;19.83;;;11.65;;
17886;SDS011;9069;52.044;7.472;2023-02-11T15:11:54;23.25;;;12.30;;
17886;SDS011;9069;52.044;7.472;2023-02-11T15:14:27;21.90;;;12.07;;
17886;SDS011;9069;52.044;7.472;2023-02-11T15:17:01;20.30;;;11.32;;
17886;SDS011;9069;52.044;7.472;2023-02-11T15:19:31;20.58;;;11.13;;
17886;SDS011;9069;52.044;7.472;2023-02-11T15:22:16;26.13;;;12.23;;
17886;SDS011;9069;52.044;7.472;2023-02-11T15:27:36;29.35;;;13.95;;
17886;SDS011;9069;52.044;7.472;2023-02-11T15:32:51;23.75;;;13.48;;
17886;SDS011;9069;52.044;7.472;2023-02-11T15:35:25;21.38;;;12.70;;
17886;SDS011;9069;52.044;7.472;2023-02-11T15:37:54;22.95;;;13.65;;
17886;SDS011;9069;52.044;7.472;2023-02-11T15:40:27;21.58;;;13.68;;
17886;SDS011;9069;52.044;7.472;2023-02-11T15:42:58;23.08;;;13.50;;
17886;SDS011;9069;52.044;7.472;2023-02-11T15:48:36;22.00;;;11.73;;
17886;SDS011;9069;52.044;7.472;2023-02-11T15:51:19;28.20;;;14.90;;
17886;SDS011;9069;52.044;7.472;2023-02-11T15:53:55;23.95;;;12.93;;
17886;SDS011;9069;52.044;7.472;2023-02-11T15:56:37;22.25;;;12.95;;
17886;SDS011;9069;52.044;7.472;2023-02-11T16:01:44;21.25;;;13.13;;
17886;SDS011;9069;52.044;7.472;2023-02-11T16:04:22;22.85;;;13.52;;
17886;SDS011;9069;52.044;7.472;2023-02-11T16:06:51;24.23;;;12.98;;
17886;SDS011;9069;52.044;7.472;2023-02-11T16:09:24;22.40;;;12.20;;
17886;SDS011;9069;52.044;7.472;2023-02-11T16:12:02;23.42;;;13.40;;
17886;SDS011;9069;52.044;7.472;2023-02-11T16:14:44;21.88;;;12.10;;
17886;SDS011;9069;52.044;7.472;2023-02-11T16:17:20;21.13;;;13.07;;
17886;SDS011;9069;52.044;7.472;2023-02-11T16:19:50;19.85;;;12.02;;
17886;SDS011;9069;52.044;7.472;2023-02-11T16:22:23;25.08;;;12.68;;
17886;SDS011;9069;52.044;7.472;2023-02-11T16:24:52;21.02;;;12.27;;
17886;SDS011;9069;52.044;7.472;2023-02-11T16:27:32;22.15;;;12.48;;
17886;SDS011;9069;52.044;7.472;2023-02-11T16:30:04;24.65;;;13.27;;
17886;SDS011;9069;52.044;7.472;2023-02-11T16:32:45;17.95;;;11.60;;
17886;SDS011;9069;52.044;7.472;2023-02-11T16:35:12;22.75;;;13.85;;
17886;SDS011;9069;52.044;7.472;2023-02-11T16:37:39;22.08;;;13.02;;
17886;SDS011;9069;52.044;7.472;2023-02-11T16:40:06;21.80;;;13.60;;
17886;SDS011;9069;52.044;7.472;2023-02-11T16:42:34;19.70;;;12.35;;
17886;SDS011;9069;52.044;7.472;2023-02-11T16:45:00;25.98;;;11.90;;
17886;SDS011;9069;52.044;7.472;2023-02-11T16:47:27;24.77;;;12.95;;
17886;SDS011;9069;52.044;7.472;2023-02-11T16:49:56;22.58;;;12.52;;
17886;SDS011;9069;52.044;7.472;2023-02-11T16:52:24;20.75;;;12.45;;
17886;SDS011;9069;52.044;7.472;2023-02-11T16:54:51;23.27;;;12.15;;
17886;SDS011;9069;52.044;7.472;2023-02-11T16:57:19;21.67;;;12.85;;
17886;SDS011;9069;52.044;7.472;2023-02-11T16:59:48;23.08;;;12.93;;
17886;SDS011;9069;52.044;7.472;2023-02-11T17:04:49;26.00;;;13.85;;
17886;SDS011;9069;52.044;7.472;2023-02-11T17:07:17;21.75;;;14.02;;
17886;SDS011;9069;52.044;7.472;2023-02-11T17:09:44;24.00;;;14.50;;
17886;SDS011;9069;52.044;7.472;2023-02-11T17:12:10;22.88;;;14.30;;
17886;SDS011;9069;52.044;7.472;2023-02-11T17:14:37;28.10;;;16.10;;
17886;SDS011;9069;52.044;7.472;2023-02-11T17:17:04;24.10;;;13.77;;
17886;SDS011;9069;52.044;7.472;2023-02-11T17:19:30;27.15;;;14.52;;
17886;SDS011;9069;52.044;7.472;2023-02-11T17:21:57;26.08;;;15.15;;
17886;SDS011;9069;52.044;7.472;2023-02-11T17:24:24;27.52;;;16.17;;
17886;SDS011;9069;52.044;7.472;2023-02-11T17:26:50;27.23;;;14.80;;